↓ Skip to Content Start of content

Bits / 2022 / Running Data

0 miles
this month
208.0 miles
this year


Date Distance (miles) Duration Average Pace Heart Rate Climb
2022-07-26 2.01 24:25 12:11 139 266
2022-07-23 2.02 25:14 12:29 142 265
2022-07-22 1.01 12:50 12:43 141 124
2022-07-11 3.03 36:40 12:05 145 379
2022-07-09 0.68 7:58 11:46 150 40
2022-07-09 7.25 1:35:39 13:12 608
2022-07-08 5.10 1:03:09 12:23 144 619
2022-07-04 3.21 39:34 12:20 143 404
2022-07-02 7.03 1:38:36 14:01 149 872
2022-06-30 3.02 34:22 11:22 151 390
2022-06-22 5.49 1:04:30 11:45 143 451
2022-06-21 5.52 1:05:42 11:54 147 446
2022-06-19 6.37 1:17:24 12:09 139 536
2022-06-18 5.50 1:05:30 11:54 141 449
2022-06-15 4.30 49:51 11:36 144 381
2022-06-14 3.06 36:34 11:57 147 241
2022-06-11 4.67 58:44 12:35 140 404
2022-06-10 4.75 57:06 12:02 149 397
2022-06-07 2.04 24:32 12:01 141 259
2022-06-06 1.02 11:51 11:37 140 269
2022-06-04 2.44 1:54:14 46:51 153 67
2022-06-03 2.40 38:10 15:53 143 237
2022-06-01 3.10 35:54 11:34 143 300
2022-05-28 1.01 17:58 17:48 122 127
2022-05-28 6.22 1:21:38 13:07 142 451
2022-05-25 3.11 36:38 11:46 145 290
2022-05-24 3.16 37:49 11:59 142 278
2022-05-21 2.47 1:56:54 47:18 147 22
2022-05-20 3.20 36:58 11:34 146 315
2022-05-17 3.11 36:08 11:38 145 296
2022-05-14 2.80 1:53:51 40:36 151 65
2022-05-13 3.24 39:40 12:14 149 289
2022-05-11 1.07 12:34 11:42 141 85
2022-05-07 0.36 11:25 31:51 138 6
2022-05-07 3.27 39:31 12:05 142 274
2022-05-05 3.11 37:56 12:11 142 281
2022-05-03 3.03 35:10 11:36 145 298
2022-04-30 0.40 10:01 24:50 125 10
2022-04-28 2.12 25:32 12:02 140 183
2022-04-26 3.02 34:16 11:21 145 300
2022-04-23 0.46 28:43 62:27 140 5
2022-04-23 3.21 39:02 12:11 146 275
2022-04-20 3.12 36:10 11:36 143 266
2022-04-16 5.29 1:12:28 13:42 144 595
2022-04-13 2.06 24:29 11:52 145 196
2022-04-12 2.00 23:20 11:39 141 193
2022-04-07 2.01 24:04 11:58 139 161
2022-04-06 1.04 12:12 11:42 141 80
2022-04-03 2.05 25:21 12:22 139 184
2022-04-02 0.48 17:33 36:38 132 0
2022-04-01 2.01 23:14 11:33 150 174
2022-03-30 2.19 25:26 11:35 147 214
2022-03-26 0.34 3:54 11:37 134 10
2022-03-24 2.06 24:49 12:03 147 188
2022-03-22 3.12 36:20 11:39 154 286
2022-03-17 2.19 24:42 11:16 148 212
2022-03-15 1.02 11:12 10:58 139 108
2022-03-12 1.05 11:06 10:35 144 110
2022-03-02 2.02 22:36 11:11 149 195
2022-03-01 2.14 24:10 11:18 149 198
2022-02-26 3.28 42:20 12:55 148 329
2022-02-25 2.02 23:10 11:29 149 194
2022-02-23 1.25 13:53 11:09 143 131
2022-02-22 1.16 13:00 11:11 140 98
2022-02-19 2.53 28:40 11:19 145 244
2022-02-18 2.01 22:20 11:06 149 189
2022-02-16 2.01 22:46 11:20 147 190
2022-02-12 2.16 25:22 11:44 143 202
2022-02-11 2.01 24:14 12:03 147 199
2022-02-08 1.60 18:08 11:21 145 159
2022-02-05 2.02 24:20 12:02 143 215
2022-02-03 1.58 18:01 11:25 146 154
2022-02-01 1.57 17:18 11:02 145 160
2022-01-28 2.01 22:52 11:23 149 214
2022-01-15 3.85 47:48 12:25 148 266
2022-01-11 2.10 23:22 11:09 142 230
2022-01-08 2.06 23:00 11:08 145 221
2022-01-06 1.71 19:43 11:32 146 183
2022-01-04 1.51 18:08 11:59 146 163